createdAt,value
2018-06-12T00:00:07.097Z,58.23
2018-06-12T00:02:35.408Z,84.20
2018-06-12T00:05:03.780Z,72.73
2018-06-12T00:07:32.114Z,102.23
2018-06-12T00:10:00.461Z,79.33
2018-06-12T00:12:28.773Z,98.20
2018-06-12T00:14:57.102Z,101.20
2018-06-12T00:17:25.397Z,84.77
2018-06-12T00:19:53.721Z,89.37
2018-06-12T00:22:22.041Z,112.77
2018-06-12T00:24:50.372Z,107.27
2018-06-12T00:27:18.692Z,112.73
2018-06-12T00:29:47.017Z,102.03
2018-06-12T00:32:15.316Z,79.60
2018-06-12T00:34:43.632Z,90.20
2018-06-12T00:37:11.953Z,80.87
2018-06-12T00:39:40.273Z,77.43
2018-06-12T00:42:08.617Z,94.63
2018-06-12T00:44:36.945Z,79.83
2018-06-12T00:47:05.388Z,86.87
2018-06-12T00:49:33.725Z,90.07
2018-06-12T00:52:02.037Z,98.67
2018-06-12T00:54:30.357Z,95.57
2018-06-12T00:57:06.129Z,93.10
2018-06-12T00:59:34.172Z,98.10
2018-06-12T01:02:03.197Z,111.77
2018-06-12T01:04:31.539Z,95.40
2018-06-12T01:06:59.967Z,70.60
2018-06-12T01:09:28.275Z,68.37
2018-06-12T01:11:56.597Z,68.60
2018-06-12T01:14:24.945Z,64.00
2018-06-12T01:16:53.254Z,65.80
2018-06-12T01:19:21.689Z,67.47
2018-06-12T01:21:49.989Z,72.47
2018-06-12T01:24:18.325Z,60.43
2018-06-12T01:26:46.663Z,68.83
2018-06-12T01:29:14.973Z,51.57
2018-06-12T01:31:43.295Z,58.10
2018-06-12T01:34:11.661Z,63.50
2018-06-12T01:36:39.952Z,58.10
2018-06-12T01:39:08.566Z,73.07
2018-06-12T01:41:36.857Z,67.00
2018-06-12T01:44:05.205Z,85.10
2018-06-12T01:46:33.505Z,82.80
2018-06-12T01:49:02.457Z,79.30
2018-06-12T01:51:30.799Z,62.83
2018-06-12T01:53:59.154Z,72.57
2018-06-12T01:56:27.492Z,61.47
2018-06-12T01:58:55.801Z,77.77
2018-06-12T02:01:24.116Z,68.40
2018-06-12T02:03:52.425Z,70.47
2018-06-12T02:06:20.757Z,67.97
2018-06-12T02:08:49.050Z,79.00
2018-06-12T02:11:17.372Z,54.43
2018-06-12T02:13:45.683Z,61.67
2018-06-12T02:16:14.018Z,68.10
2018-06-12T02:18:42.345Z,67.27
2018-06-12T02:21:10.657Z,64.87
2018-06-12T02:23:38.963Z,60.20
2018-06-12T02:26:07.289Z,68.57
2018-06-12T02:28:35.605Z,67.00
2018-06-12T02:31:03.656Z,76.07
2018-06-12T02:33:31.954Z,60.00
2018-06-12T02:36:00.284Z,62.27
2018-06-12T02:38:28.607Z,61.50
2018-06-12T02:40:56.939Z,56.10
2018-06-12T02:43:25.270Z,67.93
2018-06-12T02:45:53.605Z,46.50
2018-06-12T02:48:21.948Z,64.03
2018-06-12T02:50:50.273Z,52.60
2018-06-12T02:53:18.650Z,59.60
2018-06-12T02:55:46.970Z,56.57
2018-06-12T02:58:15.292Z,62.13
2018-06-12T03:00:43.652Z,61.37
2018-06-12T03:03:11.955Z,54.93
2018-06-12T03:05:40.289Z,59.27
2018-06-12T03:08:08.610Z,54.00
2018-06-12T03:10:36.948Z,65.90
2018-06-12T03:13:05.258Z,49.63
2018-06-12T03:15:33.613Z,69.57
2018-06-12T03:18:01.916Z,78.70
2018-06-12T03:20:44.041Z,57.30
2018-06-12T03:23:12.394Z,78.57
2018-06-12T03:25:40.742Z,49.97
2018-06-12T03:28:09.742Z,58.33
2018-06-12T03:30:38.067Z,54.87
2018-06-12T03:33:07.046Z,63.67
2018-06-12T03:35:35.384Z,76.33
2018-06-12T03:38:03.745Z,47.77
2018-06-12T03:40:32.083Z,47.90
2018-06-12T03:43:00.502Z,48.87
2018-06-12T03:45:28.846Z,47.50
2018-06-12T03:47:57.197Z,49.97
2018-06-12T03:50:25.497Z,43.40
2018-06-12T03:52:53.825Z,56.17
2018-06-12T03:55:22.131Z,64.23
2018-06-12T03:57:50.464Z,48.37
2018-06-12T04:00:18.764Z,52.87
2018-06-12T04:02:47.092Z,47.53
2018-06-12T04:05:15.425Z,49.57
2018-06-12T04:07:43.818Z,46.80
2018-06-12T04:10:12.093Z,49.60
2018-06-12T04:12:40.414Z,39.03
2018-06-12T04:15:08.729Z,46.00
2018-06-12T04:17:37.049Z,50.00
2018-06-12T04:20:05.437Z,44.43
2018-06-12T04:22:33.754Z,35.07
2018-06-12T04:25:02.073Z,40.60
2018-06-12T04:27:30.433Z,37.30
2018-06-12T04:29:58.734Z,48.03
2018-06-12T04:32:27.090Z,58.10
2018-06-12T04:34:55.428Z,49.93
2018-06-12T04:37:23.756Z,58.73
2018-06-12T04:39:52.081Z,42.37
2018-06-12T04:42:20.427Z,50.70
2018-06-12T04:44:48.867Z,39.23
2018-06-12T04:47:17.226Z,46.83
2018-06-12T04:49:45.537Z,54.07
2018-06-12T04:52:13.857Z,42.60
2018-06-12T04:54:42.201Z,40.97
2018-06-12T04:57:10.501Z,43.67
2018-06-12T04:59:38.812Z,50.87
2018-06-12T05:02:07.136Z,47.97
2018-06-12T05:04:35.165Z,44.27
2018-06-12T05:07:03.488Z,50.77
2018-06-12T05:09:31.812Z,60.57
2018-06-12T05:12:00.145Z,56.67
2018-06-12T05:14:28.441Z,51.37
2018-06-12T05:16:56.775Z,48.60
2018-06-12T05:19:25.080Z,50.13
2018-06-12T05:21:53.415Z,60.37
2018-06-12T05:24:21.729Z,44.83
2018-06-12T05:26:50.033Z,55.70
2018-06-12T05:29:18.373Z,56.40
2018-06-12T05:31:46.695Z,42.53
2018-06-12T05:34:15.025Z,62.53
2018-06-12T05:36:43.323Z,48.00
2018-06-12T05:39:11.885Z,36.53
2018-06-12T05:41:40.501Z,53.67
2018-06-12T05:44:08.873Z,56.33
2018-06-12T05:46:37.168Z,40.73
2018-06-12T05:49:05.633Z,47.63
2018-06-12T05:51:33.947Z,51.67
2018-06-12T05:54:02.257Z,41.83
2018-06-12T05:56:30.586Z,43.43
2018-06-12T05:58:58.933Z,46.30
2018-06-12T06:01:27.242Z,38.40
2018-06-12T06:03:55.567Z,41.20
2018-06-12T06:06:23.883Z,28.13
2018-06-12T06:08:52.217Z,10.80
2018-06-12T06:11:20.517Z,17.87
2018-06-12T06:13:48.838Z,16.37
2018-06-12T06:16:17.193Z,26.43
2018-06-12T06:18:45.527Z,30.47
2018-06-12T06:21:13.833Z,30.93
2018-06-12T06:23:42.158Z,32.77
2018-06-12T06:26:10.473Z,31.50
2018-06-12T06:28:38.833Z,29.97
2018-06-12T06:31:07.156Z,31.07
2018-06-12T06:33:35.502Z,27.63
2018-06-12T06:36:04.769Z,34.37
2018-06-12T06:38:33.092Z,33.77
2018-06-12T06:41:01.398Z,28.00
2018-06-12T06:43:29.742Z,33.93
2018-06-12T06:45:58.072Z,36.30
2018-06-12T06:48:26.400Z,30.20
2018-06-12T06:50:54.761Z,35.17
2018-06-12T06:53:23.145Z,29.57
2018-06-12T06:55:51.462Z,34.63
2018-06-12T06:58:19.791Z,33.50
2018-06-12T07:00:48.093Z,29.27
2018-06-12T07:03:16.417Z,31.90
2018-06-12T07:05:44.902Z,35.97
2018-06-12T07:08:13.220Z,34.90
2018-06-12T07:10:41.616Z,34.83
2018-06-12T07:13:09.921Z,39.87
2018-06-12T07:15:38.253Z,30.90
2018-06-12T07:18:06.570Z,35.30
2018-06-12T07:20:46.331Z,32.43
2018-06-12T07:23:14.637Z,35.67
2018-06-12T07:25:42.971Z,34.97
2018-06-12T07:28:11.281Z,35.33
2018-06-12T07:30:39.598Z,28.00
2018-06-12T07:33:08.097Z,40.93
2018-06-12T07:35:36.433Z,31.20
2018-06-12T07:38:07.990Z,28.90
2018-06-12T07:40:36.037Z,34.63
2018-06-12T07:43:04.397Z,23.70
2018-06-12T07:45:32.712Z,25.40
2018-06-12T07:48:01.007Z,28.03
2018-06-12T07:50:29.330Z,24.37
2018-06-12T07:52:57.661Z,24.13
2018-06-12T07:55:25.974Z,32.40
2018-06-12T07:57:54.273Z,27.87
2018-06-12T08:00:22.584Z,32.50
2018-06-12T08:02:50.899Z,30.30
2018-06-12T08:05:19.213Z,26.27
2018-06-12T08:07:47.527Z,40.30
2018-06-12T08:10:15.861Z,33.70
2018-06-12T08:12:44.245Z,46.07
2018-06-12T08:15:12.533Z,39.47
2018-06-12T08:17:40.833Z,52.70
2018-06-12T08:20:09.165Z,27.80
2018-06-12T08:22:37.474Z,33.63
2018-06-12T08:25:05.789Z,56.67
2018-06-12T08:27:34.096Z,35.67
2018-06-12T08:30:02.521Z,45.33
2018-06-12T08:32:30.735Z,45.93
2018-06-12T08:34:59.057Z,38.57
2018-06-12T08:37:27.362Z,53.87
2018-06-12T08:39:55.750Z,40.53
2018-06-12T08:42:24.029Z,40.50
2018-06-12T08:44:52.365Z,44.10
2018-06-12T08:47:20.744Z,37.87
2018-06-12T08:49:48.789Z,43.50
2018-06-12T08:52:17.072Z,30.23
2018-06-12T08:54:45.384Z,25.93
2018-06-12T08:57:13.697Z,24.83
2018-06-12T08:59:42.026Z,24.17
2018-06-12T09:02:10.337Z,21.57
2018-06-12T09:04:38.649Z,25.03
2018-06-12T09:07:07.993Z,27.50
2018-06-12T09:09:36.312Z,25.03
2018-06-12T09:12:04.687Z,26.37
2018-06-12T09:14:33.040Z,18.53
2018-06-12T09:17:01.425Z,26.83
2018-06-12T09:19:29.724Z,25.40
2018-06-12T09:21:58.065Z,20.13
2018-06-12T09:24:26.388Z,18.77
2018-06-12T09:26:54.704Z,16.27
2018-06-12T09:29:23.011Z,14.47
2018-06-12T09:31:51.345Z,15.47
2018-06-12T09:34:19.680Z,14.30
2018-06-12T09:36:48.030Z,13.30
2018-06-12T09:39:16.357Z,15.47
2018-06-12T09:41:44.694Z,16.50
2018-06-12T09:44:13.036Z,15.80
2018-06-12T09:46:43.600Z,19.00
2018-06-12T09:49:12.467Z,14.77
2018-06-12T09:51:40.785Z,17.93
2018-06-12T09:54:11.841Z,15.57
2018-06-12T09:56:40.177Z,15.13
2018-06-12T09:59:08.480Z,13.07
2018-06-12T10:01:36.806Z,13.97
2018-06-12T10:04:05.136Z,10.67
2018-06-12T10:06:33.497Z,11.30
2018-06-12T10:09:01.797Z,8.23
2018-06-12T10:11:30.108Z,9.60
2018-06-12T10:13:58.400Z,6.93
2018-06-12T10:16:26.736Z,5.23
2018-06-12T10:18:55.037Z,4.07
2018-06-12T10:21:23.356Z,4.30
2018-06-12T10:23:51.690Z,4.63
2018-06-12T10:26:19.748Z,4.37
2018-06-12T10:28:48.038Z,4.30
2018-06-12T10:31:16.345Z,5.73
2018-06-12T10:33:44.660Z,5.30
2018-06-12T10:36:12.977Z,5.87
2018-06-12T10:38:41.267Z,7.00
2018-06-12T10:41:09.589Z,6.33
2018-06-12T10:43:37.979Z,6.87
2018-06-12T10:46:06.265Z,6.87
2018-06-12T10:48:34.580Z,7.37
2018-06-12T10:51:02.900Z,6.83
2018-06-12T10:53:31.180Z,7.13
2018-06-12T10:55:59.507Z,8.77
2018-06-12T10:58:27.936Z,8.73
2018-06-12T11:01:00.667Z,9.17
2018-06-12T11:03:29.013Z,8.73
2018-06-12T11:05:57.345Z,10.33
2018-06-12T11:08:25.646Z,9.97
2018-06-12T11:10:53.960Z,11.70
2018-06-12T11:13:22.295Z,12.13
2018-06-12T11:15:50.623Z,10.00
2018-06-12T11:18:18.948Z,12.10
2018-06-12T11:20:47.295Z,10.20
2018-06-12T11:23:15.625Z,11.90
2018-06-12T11:25:43.937Z,10.60
2018-06-12T11:28:12.256Z,11.33
2018-06-12T11:30:40.553Z,12.63
2018-06-12T11:33:08.948Z,12.77
2018-06-12T11:35:37.221Z,13.33
2018-06-12T11:38:05.552Z,12.90
2018-06-12T11:40:33.849Z,13.83
2018-06-12T11:43:02.161Z,11.37
2018-06-12T11:45:30.570Z,11.27
2018-06-12T11:47:58.884Z,12.47
2018-06-12T11:50:27.177Z,12.73
2018-06-12T11:52:55.511Z,13.50
2018-06-12T11:55:23.814Z,12.83
2018-06-12T11:57:52.129Z,13.57
2018-06-12T12:00:20.440Z,15.20
2018-06-12T12:02:48.762Z,15.17
2018-06-12T12:05:17.087Z,15.53
2018-06-12T12:07:45.430Z,16.57
2018-06-12T12:10:13.745Z,16.73
2018-06-12T12:12:42.087Z,16.97
2018-06-12T12:15:10.389Z,16.90
2018-06-12T12:17:38.712Z,17.73
2018-06-12T12:20:07.012Z,19.23
2018-06-12T12:22:35.333Z,19.70
2018-06-12T12:25:03.673Z,19.17
2018-06-12T12:27:31.989Z,21.07
2018-06-12T12:30:00.290Z,22.17
2018-06-12T12:32:28.605Z,21.40
2018-06-12T12:34:56.904Z,20.33
2018-06-12T12:37:25.218Z,21.17
2018-06-12T12:39:53.514Z,26.13
2018-06-12T12:42:21.841Z,21.33
2018-06-12T12:44:50.157Z,21.70
2018-06-12T12:47:18.472Z,23.77
2018-06-12T12:49:46.868Z,30.07
2018-06-12T12:52:15.205Z,23.73
2018-06-12T12:54:43.505Z,22.47
2018-06-12T12:57:11.917Z,27.00
2018-06-12T12:59:40.212Z,23.70
2018-06-12T13:02:08.525Z,25.70
2018-06-12T13:04:36.853Z,27.67
2018-06-12T13:07:05.174Z,26.97
2018-06-12T13:09:33.501Z,23.63
2018-06-12T13:12:01.826Z,26.27
2018-06-12T13:14:30.145Z,24.53
2018-06-12T13:16:58.440Z,19.83
2018-06-12T13:19:26.753Z,23.30
2018-06-12T13:21:55.049Z,20.80
2018-06-12T13:24:23.370Z,21.60
2018-06-12T13:26:51.693Z,22.60
2018-06-12T13:29:20.006Z,22.27
2018-06-12T13:31:48.321Z,22.43
2018-06-12T13:34:16.640Z,24.93
2018-06-12T13:36:45.054Z,21.10
2018-06-12T13:39:13.502Z,20.67
2018-06-12T13:41:41.823Z,20.67
2018-06-12T13:44:10.168Z,21.80
2018-06-12T13:46:38.473Z,16.77
2018-06-12T13:49:06.795Z,18.57
2018-06-12T13:51:35.103Z,15.57
2018-06-12T13:54:03.414Z,14.43
2018-06-12T13:56:31.701Z,16.77
2018-06-12T13:59:00.025Z,12.90
2018-06-12T14:01:28.316Z,14.67
2018-06-12T14:04:00.336Z,16.63
2018-06-12T14:06:28.633Z,13.37
2018-06-12T14:08:56.965Z,15.83
2018-06-12T14:11:25.024Z,13.80
2018-06-12T14:13:53.334Z,12.60
2018-06-12T14:16:22.339Z,17.30
2018-06-12T14:18:50.665Z,17.23
2018-06-12T14:21:18.979Z,17.10
2018-06-12T14:23:47.306Z,14.60
2018-06-12T14:26:15.620Z,13.70
2018-06-12T14:28:43.948Z,14.37
2018-06-12T14:31:12.245Z,15.73
2018-06-12T14:33:40.560Z,14.40
2018-06-12T14:36:08.849Z,16.40
2018-06-12T14:38:37.169Z,14.67
2018-06-12T14:41:05.485Z,13.30
2018-06-12T14:43:33.805Z,13.47
2018-06-12T14:46:02.137Z,13.70
2018-06-12T14:48:30.457Z,14.70
2018-06-12T14:50:58.765Z,11.97
2018-06-12T14:53:27.072Z,12.13
2018-06-12T14:55:55.389Z,11.97
2018-06-12T14:58:23.704Z,16.73
2018-06-12T15:00:51.769Z,14.30
2018-06-12T15:03:20.074Z,11.30
2018-06-12T15:05:48.390Z,14.97
2018-06-12T15:08:16.713Z,12.63
2018-06-12T15:10:45.029Z,12.17
2018-06-12T15:13:13.338Z,14.00
2018-06-12T15:15:41.669Z,16.23
2018-06-12T15:18:09.976Z,13.80
2018-06-12T15:20:38.329Z,14.47
2018-06-12T15:23:06.637Z,13.80
2018-06-12T15:25:34.973Z,16.30
2018-06-12T15:28:03.302Z,23.50
2018-06-12T15:30:31.628Z,21.30
2018-06-12T15:32:59.938Z,20.07
2018-06-12T15:35:28.279Z,20.83
2018-06-12T15:37:56.596Z,25.40
2018-06-12T15:40:24.926Z,20.87
2018-06-12T15:42:53.232Z,22.80
2018-06-12T15:45:21.572Z,18.77
2018-06-12T15:47:49.874Z,19.80
2018-06-12T15:50:18.198Z,23.57
2018-06-12T15:52:46.497Z,21.90
2018-06-12T15:55:14.829Z,24.67
2018-06-12T15:57:43.126Z,21.77
2018-06-12T16:00:11.453Z,20.77
2018-06-12T16:02:39.754Z,20.70
2018-06-12T16:05:08.072Z,17.43
2018-06-12T16:07:36.384Z,18.97
2018-06-12T16:10:04.712Z,20.33
2018-06-12T16:12:33.010Z,16.90
2018-06-12T16:15:01.337Z,20.20
2018-06-12T16:17:29.637Z,19.53
2018-06-12T16:19:57.966Z,15.90
2018-06-12T16:22:26.290Z,22.07
2018-06-12T16:24:54.609Z,16.80
2018-06-12T16:27:22.932Z,16.77
2018-06-12T16:29:51.265Z,18.53
2018-06-12T16:32:19.608Z,20.67
2018-06-12T16:34:47.904Z,15.07
2018-06-12T16:37:16.240Z,16.53
2018-06-12T16:39:44.560Z,15.50
2018-06-12T16:42:12.877Z,15.50
2018-06-12T16:44:41.200Z,15.37
2018-06-12T16:47:09.534Z,12.60
2018-06-12T16:49:37.833Z,12.10
2018-06-12T16:52:06.181Z,8.93
2018-06-12T16:54:34.476Z,6.87
2018-06-12T16:57:02.797Z,6.90
2018-06-12T16:59:31.114Z,9.97
2018-06-12T17:01:59.429Z,7.60
2018-06-12T17:04:27.745Z,7.50
2018-06-12T17:06:56.076Z,7.63
2018-06-12T17:09:24.370Z,5.90
2018-06-12T17:11:52.682Z,7.50
2018-06-12T17:14:20.968Z,7.53
2018-06-12T17:16:54.683Z,5.67
2018-06-12T17:19:22.984Z,5.87
2018-06-12T17:21:51.318Z,8.37
2018-06-12T17:24:19.646Z,7.27
2018-06-12T17:26:47.983Z,7.30
2018-06-12T17:29:16.287Z,6.43
2018-06-12T17:31:44.660Z,6.47
2018-06-12T17:34:12.961Z,6.00
2018-06-12T17:36:41.296Z,6.57
2018-06-12T17:39:09.600Z,10.17
2018-06-12T17:41:37.921Z,6.23
2018-06-12T17:44:06.428Z,6.87
2018-06-12T17:46:34.741Z,6.27
2018-06-12T17:49:03.046Z,8.20
2018-06-12T17:51:31.751Z,6.77
2018-06-12T17:54:00.162Z,7.80
2018-06-12T17:56:28.508Z,6.33
2018-06-12T17:58:56.823Z,6.97
2018-06-12T18:01:25.137Z,6.67
2018-06-12T18:03:53.428Z,7.27
2018-06-12T18:06:21.720Z,6.60
2018-06-12T18:08:50.060Z,6.77
2018-06-12T18:11:18.354Z,7.50
2018-06-12T18:13:46.665Z,7.27
2018-06-12T18:16:14.948Z,8.63
2018-06-12T18:18:43.261Z,9.07
2018-06-12T18:21:11.557Z,12.07
2018-06-12T18:23:39.873Z,7.67
2018-06-12T18:26:08.197Z,8.37
2018-06-12T18:28:36.236Z,8.10
2018-06-12T18:31:04.551Z,8.27
2018-06-12T18:33:32.861Z,7.43
2018-06-12T18:36:01.173Z,7.83
2018-06-12T18:38:29.540Z,12.27
2018-06-12T18:40:57.843Z,9.13
2018-06-12T18:43:26.184Z,7.13
2018-06-12T18:45:54.506Z,8.47
2018-06-12T18:48:22.824Z,10.23
2018-06-12T18:50:51.133Z,8.43
2018-06-12T18:53:19.448Z,9.30
2018-06-12T18:55:47.749Z,8.33
2018-06-12T18:58:16.069Z,14.03
2018-06-12T19:00:44.358Z,8.50
2018-06-12T19:03:12.870Z,9.50
2018-06-12T19:05:41.209Z,10.30
2018-06-12T19:08:09.549Z,14.17
2018-06-12T19:10:37.913Z,11.63
2018-06-12T19:13:06.229Z,10.83
2018-06-12T19:15:34.529Z,10.17
2018-06-12T19:18:02.867Z,11.77
2018-06-12T19:20:31.166Z,16.93
2018-06-12T19:22:59.486Z,11.97
2018-06-12T19:25:27.805Z,14.50
2018-06-12T19:27:56.922Z,13.73
2018-06-12T19:30:25.226Z,13.80
2018-06-12T19:32:53.556Z,13.77
2018-06-12T19:35:22.719Z,17.27
2018-06-12T19:37:51.065Z,14.33
2018-06-12T19:40:19.424Z,16.20
2018-06-12T19:42:47.848Z,19.00
2018-06-12T19:45:17.346Z,15.87
2018-06-12T19:47:45.743Z,19.00
2018-06-12T19:50:14.804Z,21.37
2018-06-12T19:52:44.325Z,18.83
2018-06-12T19:55:12.645Z,17.90
2018-06-12T19:57:40.949Z,16.23
2018-06-12T20:00:09.379Z,20.97
2018-06-12T20:02:37.697Z,14.50
2018-06-12T20:05:06.045Z,17.80
2018-06-12T20:07:34.360Z,15.50
2018-06-12T20:10:02.769Z,18.27
2018-06-12T20:12:31.069Z,15.20
2018-06-12T20:14:59.385Z,15.87
2018-06-12T20:17:27.697Z,15.67
2018-06-12T20:19:56.013Z,18.20
2018-06-12T20:22:24.313Z,17.53
2018-06-12T20:24:52.665Z,16.33
2018-06-12T20:27:21.067Z,18.40
2018-06-12T20:29:49.395Z,19.37
2018-06-12T20:32:17.686Z,21.63
2018-06-12T20:34:46.053Z,19.07
2018-06-12T20:37:14.364Z,22.30
2018-06-12T20:39:43.643Z,24.37
2018-06-12T20:42:12.013Z,23.40
2018-06-12T20:44:40.318Z,23.27
2018-06-12T20:47:08.694Z,20.70
2018-06-12T20:49:37.034Z,24.57
2018-06-12T20:52:05.336Z,23.17
2018-06-12T20:54:33.658Z,24.50
2018-06-12T20:57:01.978Z,24.40
2018-06-12T20:59:30.295Z,26.30
2018-06-12T21:01:58.597Z,24.17
2018-06-12T21:04:26.933Z,26.37
2018-06-12T21:06:55.279Z,26.13
2018-06-12T21:09:23.677Z,26.37
2018-06-12T21:11:51.977Z,25.93
2018-06-12T21:14:20.297Z,22.47
2018-06-12T21:16:48.600Z,28.07
2018-06-12T21:19:16.924Z,25.77
2018-06-12T21:21:45.237Z,28.80
2018-06-12T21:24:13.557Z,27.40
2018-06-12T21:26:41.985Z,29.57
2018-06-12T21:29:10.363Z,28.53
2018-06-12T21:31:38.782Z,26.67
2018-06-12T21:34:07.005Z,28.53
2018-06-12T21:36:35.373Z,32.00
2018-06-12T21:39:03.844Z,30.40
2018-06-12T21:41:32.179Z,32.80
2018-06-12T21:44:00.592Z,33.03
2018-06-12T21:46:28.933Z,34.60
2018-06-12T21:48:57.232Z,31.27
2018-06-12T21:51:25.569Z,34.07
2018-06-12T21:53:53.861Z,31.33
2018-06-12T21:56:22.186Z,32.40
2018-06-12T21:58:50.485Z,33.33
2018-06-12T22:01:18.874Z,29.60
2018-06-12T22:03:47.181Z,32.83
2018-06-12T22:06:15.513Z,31.33
2018-06-12T22:08:43.573Z,31.67
2018-06-12T22:11:11.905Z,34.03
2018-06-12T22:13:40.241Z,31.17
2018-06-12T22:16:08.573Z,33.93
2018-06-12T22:18:36.893Z,30.10
2018-06-12T22:21:05.260Z,32.60
2018-06-12T22:23:33.580Z,34.63
2018-06-12T22:26:01.901Z,30.57
2018-06-12T22:28:30.221Z,32.83
2018-06-12T22:30:59.392Z,27.87
2018-06-12T22:33:27.745Z,29.80
2018-06-12T22:35:56.060Z,29.13
2018-06-12T22:38:24.393Z,25.63
2018-06-12T22:40:52.708Z,26.63
2018-06-12T22:43:21.049Z,26.80
2018-06-12T22:45:49.406Z,27.53
2018-06-12T22:48:17.713Z,26.63
2018-06-12T22:50:46.202Z,26.77
2018-06-12T22:53:14.670Z,25.53
2018-06-12T22:55:43.014Z,26.87
2018-06-12T22:58:11.521Z,28.70
2018-06-12T23:00:39.819Z,25.87
2018-06-12T23:03:08.180Z,24.80
2018-06-12T23:05:36.501Z,23.73
2018-06-12T23:08:05.333Z,25.03
2018-06-12T23:10:33.706Z,27.43
2018-06-12T23:13:02.056Z,24.13
2018-06-12T23:15:30.367Z,27.73
2018-06-12T23:17:58.684Z,23.07
2018-06-12T23:20:49.337Z,23.67
2018-06-12T23:23:17.656Z,23.83
2018-06-12T23:25:45.985Z,23.77
2018-06-12T23:28:14.341Z,24.17
2018-06-12T23:30:42.638Z,22.17
2018-06-12T23:33:11.002Z,20.40
2018-06-12T23:35:39.309Z,23.10
2018-06-12T23:38:07.687Z,20.97
2018-06-12T23:40:35.988Z,21.27
2018-06-12T23:43:04.328Z,20.13
2018-06-12T23:45:32.650Z,20.70
2018-06-12T23:48:00.970Z,20.87
2018-06-12T23:50:29.273Z,19.40
2018-06-12T23:52:57.589Z,20.03
2018-06-12T23:55:25.886Z,17.10
2018-06-12T23:57:54.222Z,17.67
